createdAt,value
2022-10-31T00:01:23.679Z,6.90
2022-10-31T00:03:50.474Z,6.72
2022-10-31T00:06:20.217Z,6.45
2022-10-31T00:08:48.888Z,6.18
2022-10-31T00:11:15.819Z,6.32
2022-10-31T00:13:42.541Z,7.38
2022-10-31T00:16:17.135Z,6.43
2022-10-31T00:18:43.933Z,6.60
2022-10-31T00:21:10.932Z,5.40
2022-10-31T00:23:37.723Z,4.63
2022-10-31T00:26:05.182Z,5.90
2022-10-31T00:28:33.067Z,6.45
2022-10-31T00:31:04.268Z,5.82
2022-10-31T00:33:31.506Z,7.28
2022-10-31T00:35:58.330Z,5.60
2022-10-31T00:38:25.406Z,6.65
2022-10-31T00:40:52.372Z,6.07
2022-10-31T00:43:19.427Z,5.88
2022-10-31T00:45:46.226Z,6.60
2022-10-31T00:48:13.303Z,5.57
2022-10-31T00:50:40.697Z,4.65
2022-10-31T00:53:07.868Z,4.88
2022-10-31T00:55:34.695Z,6.47
2022-10-31T00:58:02.287Z,6.50
2022-10-31T01:00:29.431Z,4.78
2022-10-31T01:02:57.298Z,3.50
2022-10-31T01:05:24.494Z,7.40
2022-10-31T01:07:51.365Z,5.53
2022-10-31T01:10:19.057Z,4.82
2022-10-31T01:12:48.220Z,4.43
2022-10-31T01:15:17.788Z,4.63
2022-10-31T01:17:44.649Z,6.35
2022-10-31T01:20:13.568Z,4.75
2022-10-31T01:22:40.415Z,4.60
2022-10-31T01:25:08.573Z,4.28
2022-10-31T01:27:35.374Z,5.68
2022-10-31T01:30:02.532Z,4.07
2022-10-31T01:32:33.208Z,3.97
2022-10-31T01:35:00.078Z,4.80
2022-10-31T01:37:26.884Z,4.82
2022-10-31T01:39:53.687Z,4.88
2022-10-31T01:42:22.803Z,6.53
2022-10-31T01:44:54.794Z,4.20
2022-10-31T01:47:31.325Z,3.47
2022-10-31T01:50:03.662Z,4.28
2022-10-31T01:52:41.880Z,4.95
2022-10-31T01:55:19.904Z,3.75
2022-10-31T01:57:49.372Z,5.50
2022-10-31T02:00:18.680Z,4.60
2022-10-31T02:02:47.602Z,3.28
2022-10-31T02:05:19.820Z,3.00
2022-10-31T02:08:01.268Z,5.07
2022-10-31T02:10:35.136Z,4.10
2022-10-31T02:13:04.936Z,3.25
2022-10-31T02:15:33.688Z,4.53
2022-10-31T02:18:01.319Z,2.70
2022-10-31T02:20:40.230Z,2.72
2022-10-31T02:23:31.844Z,3.30
2022-10-31T02:26:39.191Z,2.65
2022-10-31T02:29:43.398Z,3.67
2022-10-31T02:32:25.075Z,3.10
2022-10-31T02:35:22.668Z,3.97
2022-10-31T02:38:17.044Z,4.43
2022-10-31T02:40:55.820Z,2.47
2022-10-31T02:43:43.843Z,4.30
2022-10-31T02:46:34.230Z,3.78
2022-10-31T02:49:08.706Z,4.20
2022-10-31T02:51:37.216Z,3.42
2022-10-31T02:54:04.303Z,4.93
2022-10-31T02:56:31.514Z,4.22
2022-10-31T02:59:03.035Z,3.95
2022-10-31T03:02:03.759Z,4.45
2022-10-31T03:05:00.464Z,2.83
2022-10-31T03:07:56.711Z,4.53
2022-10-31T03:10:40.951Z,2.38
2022-10-31T03:13:13.631Z,3.33
2022-10-31T03:16:07.439Z,4.22
2022-10-31T03:18:40.378Z,3.63
2022-10-31T03:21:11.189Z,4.18
2022-10-31T03:23:38.649Z,2.80
2022-10-31T03:26:08.701Z,3.25
2022-10-31T03:28:47.451Z,2.97
2022-10-31T03:31:18.773Z,3.53
2022-10-31T03:33:48.969Z,3.92
2022-10-31T03:36:17.832Z,2.92
2022-10-31T03:38:47.559Z,2.45
2022-10-31T03:41:24.827Z,3.00
2022-10-31T03:44:07.769Z,4.30
2022-10-31T03:46:35.063Z,2.97
2022-10-31T03:49:03.323Z,3.33
2022-10-31T03:51:54.336Z,3.92
2022-10-31T03:54:37.056Z,3.95
2022-10-31T03:57:33.956Z,3.00
2022-10-31T04:00:10.272Z,3.63
2022-10-31T04:03:11.845Z,3.83
2022-10-31T04:05:44.731Z,2.78
2022-10-31T04:08:16.360Z,3.58
2022-10-31T04:10:46.547Z,4.18
2022-10-31T04:15:53.203Z,3.65
2022-10-31T04:18:26.520Z,3.22
2022-10-31T04:21:03.760Z,4.30
2022-10-31T04:23:31.764Z,3.08
2022-10-31T04:25:59.848Z,2.85
2022-10-31T04:28:26.716Z,3.92
2022-10-31T04:30:53.913Z,2.65
2022-10-31T04:33:21.241Z,3.20
2022-10-31T04:35:48.777Z,3.78
2022-10-31T04:38:15.858Z,3.72
2022-10-31T04:40:43.864Z,2.63
2022-10-31T04:43:29.492Z,3.13
2022-10-31T04:45:56.281Z,3.42
2022-10-31T04:48:23.292Z,3.70
2022-10-31T04:50:50.117Z,2.42
2022-10-31T04:53:16.956Z,3.30
2022-10-31T04:56:04.338Z,4.30
2022-10-31T04:58:42.277Z,3.83
2022-10-31T05:01:10.705Z,3.20
2022-10-31T05:03:37.653Z,3.95
2022-10-31T05:06:05.198Z,3.50
2022-10-31T05:08:31.957Z,3.40
2022-10-31T05:11:04.881Z,4.45
2022-10-31T05:13:32.687Z,2.47
2022-10-31T05:16:14.165Z,2.85
2022-10-31T05:19:19.439Z,2.80
2022-10-31T05:24:33.757Z,2.67
2022-10-31T05:27:00.517Z,2.20
2022-10-31T05:29:27.880Z,3.40
2022-10-31T05:31:54.708Z,2.70
2022-10-31T05:34:40.328Z,3.42
2022-10-31T05:37:29.472Z,3.28
2022-10-31T05:39:56.556Z,3.33
2022-10-31T05:42:23.383Z,2.95
2022-10-31T05:44:50.272Z,3.00
2022-10-31T05:47:43.920Z,3.58
2022-10-31T05:50:31.787Z,3.70
2022-10-31T05:53:09.072Z,3.92
2022-10-31T05:55:38.061Z,3.53
2022-10-31T05:58:11.693Z,2.58
2022-10-31T06:00:41.093Z,3.67
2022-10-31T06:03:11.378Z,3.55
2022-10-31T06:05:57.928Z,3.33
2022-10-31T06:08:29.863Z,2.30
2022-10-31T06:10:59.800Z,3.38
2022-10-31T06:14:05.692Z,2.50
2022-10-31T06:16:47.053Z,3.40
2022-10-31T06:19:36.510Z,2.90
2022-10-31T06:22:03.375Z,3.72
2022-10-31T06:24:30.235Z,2.88
2022-10-31T06:27:04.308Z,2.92
2022-10-31T06:29:31.875Z,3.05
2022-10-31T06:32:05.336Z,2.47
2022-10-31T06:34:37.752Z,4.88
2022-10-31T06:37:04.645Z,4.00
2022-10-31T06:39:31.693Z,2.80
2022-10-31T06:41:58.519Z,3.40
2022-10-31T06:44:27.412Z,3.63
2022-10-31T06:47:00.497Z,4.78
2022-10-31T06:49:56.173Z,3.85
2022-10-31T06:52:25.068Z,2.95
2022-10-31T06:54:52.926Z,5.05
2022-10-31T06:57:20.983Z,5.28
2022-10-31T06:59:47.795Z,3.47
2022-10-31T07:02:14.644Z,5.78
2022-10-31T07:04:43.340Z,5.28
2022-10-31T07:07:13.518Z,4.40
2022-10-31T07:09:40.414Z,5.10
2022-10-31T07:12:09.372Z,6.65
2022-10-31T07:14:39.172Z,4.53
2022-10-31T07:17:06.838Z,5.40
2022-10-31T07:19:38.148Z,4.45
2022-10-31T07:22:04.948Z,5.20
2022-10-31T07:24:33.066Z,3.65
2022-10-31T07:27:18.631Z,4.72
2022-10-31T07:29:48.148Z,5.18
2022-10-31T07:32:16.416Z,4.85
2022-10-31T07:34:49.248Z,4.95
2022-10-31T07:37:19.780Z,5.22
2022-10-31T07:39:46.903Z,4.88
2022-10-31T07:42:13.841Z,5.20
2022-10-31T07:44:44.628Z,5.15
2022-10-31T07:47:29.813Z,5.55
2022-10-31T07:50:29.119Z,5.40
2022-10-31T07:53:15.689Z,4.95
2022-10-31T07:56:00.364Z,4.95
2022-10-31T07:58:30.098Z,4.57
2022-10-31T08:00:59.431Z,4.55
2022-10-31T08:03:34.496Z,4.55
2022-10-31T08:06:10.598Z,4.60
2022-10-31T08:09:09.702Z,4.18
2022-10-31T08:11:36.621Z,4.30
2022-10-31T08:14:03.532Z,4.43
2022-10-31T08:16:30.371Z,4.18
2022-10-31T08:19:01.299Z,4.30
2022-10-31T08:21:29.782Z,4.30
2022-10-31T08:23:57.984Z,4.00
2022-10-31T08:26:25.828Z,4.32
2022-10-31T08:28:55.750Z,4.10
2022-10-31T08:31:32.943Z,4.03
2022-10-31T08:34:19.025Z,5.10
2022-10-31T08:37:12.678Z,5.38
2022-10-31T08:39:43.982Z,5.25
2022-10-31T08:42:13.840Z,5.90
2022-10-31T08:44:40.644Z,5.30
2022-10-31T08:47:07.371Z,5.25
2022-10-31T08:49:35.045Z,5.40
2022-10-31T08:52:03.246Z,5.60
2022-10-31T08:54:34.641Z,5.45
2022-10-31T08:57:20.458Z,6.20
2022-10-31T08:59:48.288Z,6.10
2022-10-31T09:02:26.712Z,6.30
2022-10-31T09:04:59.202Z,6.53
2022-10-31T09:07:26.276Z,6.32
2022-10-31T09:09:54.467Z,5.88
2022-10-31T09:12:21.315Z,6.32
2022-10-31T09:15:07.862Z,5.20
2022-10-31T09:17:49.965Z,5.03
2022-10-31T09:20:29.867Z,5.75
2022-10-31T09:22:59.974Z,4.97
2022-10-31T09:25:28.144Z,5.78
2022-10-31T09:28:19.257Z,5.90
2022-10-31T09:30:53.323Z,4.90
2022-10-31T09:33:43.170Z,4.97
2022-10-31T09:36:37.280Z,4.22
2022-10-31T09:39:05.635Z,4.65
2022-10-31T09:42:02.000Z,3.47
2022-10-31T09:44:45.311Z,3.70
2022-10-31T09:47:42.778Z,4.10
2022-10-31T09:50:37.848Z,3.97
2022-10-31T09:53:35.296Z,3.30
2022-10-31T09:56:12.212Z,3.25
2022-10-31T09:58:46.777Z,3.20
2022-10-31T10:01:39.016Z,3.15
2022-10-31T10:04:35.695Z,3.50
2022-10-31T10:07:40.002Z,3.30
2022-10-31T10:10:52.474Z,3.28
2022-10-31T10:13:49.290Z,3.08
2022-10-31T10:16:25.528Z,2.38
2022-10-31T10:19:26.128Z,2.90
2022-10-31T10:22:28.025Z,2.90
2022-10-31T10:25:03.870Z,3.00
2022-10-31T10:27:55.697Z,3.05
2022-10-31T10:30:26.341Z,2.97
2022-10-31T10:33:09.212Z,3.20
2022-10-31T10:35:42.496Z,2.70
2022-10-31T10:38:40.075Z,2.83
2022-10-31T10:41:21.429Z,3.00
2022-10-31T11:00:48.978Z,3.38
2022-10-31T11:03:17.386Z,3.15
2022-10-31T11:05:59.244Z,3.10
2022-10-31T11:08:27.686Z,3.20
2022-10-31T11:11:17.913Z,3.53
2022-10-31T11:13:49.944Z,2.90
2022-10-31T11:16:34.463Z,3.75
2022-10-31T11:19:16.105Z,3.30
2022-10-31T11:21:43.352Z,3.67
2022-10-31T11:24:10.080Z,3.60
2022-10-31T11:26:39.117Z,3.55
2022-10-31T11:29:06.913Z,3.40
2022-10-31T11:31:38.513Z,3.63
2022-10-31T11:34:15.366Z,3.38
2022-10-31T11:36:46.605Z,3.70
2022-10-31T11:39:23.071Z,3.35
2022-10-31T11:41:51.397Z,3.33
2022-10-31T11:44:21.628Z,3.28
2022-10-31T11:47:12.098Z,4.40
2022-10-31T11:49:43.732Z,3.45
2022-10-31T11:52:21.619Z,4.05
2022-10-31T11:55:12.940Z,4.00
2022-10-31T11:57:50.211Z,3.72
2022-10-31T12:00:41.917Z,3.38
2022-10-31T12:03:15.972Z,3.30
2022-10-31T12:05:48.081Z,3.60
2022-10-31T12:08:14.958Z,3.58
2022-10-31T12:11:26.118Z,4.00
2022-10-31T12:14:18.524Z,3.85
2022-10-31T12:17:15.628Z,4.03
2022-10-31T12:22:55.629Z,3.83
2022-10-31T12:25:46.925Z,3.72
2022-10-31T12:28:25.616Z,3.70
2022-10-31T12:30:58.155Z,4.15
2022-10-31T12:33:57.224Z,3.45
2022-10-31T12:37:04.001Z,4.15
2022-10-31T12:40:06.445Z,3.87
2022-10-31T12:42:51.295Z,4.07
2022-10-31T12:45:27.604Z,4.00
2022-10-31T12:48:05.965Z,3.78
2022-10-31T12:51:03.889Z,4.00
2022-10-31T12:53:53.500Z,3.75
2022-10-31T12:56:30.614Z,3.88
2022-10-31T12:59:16.007Z,3.47
2022-10-31T13:01:55.148Z,4.10
2022-10-31T13:04:46.551Z,3.80
2022-10-31T13:07:41.952Z,3.75
2022-10-31T13:10:27.994Z,4.03
2022-10-31T13:13:05.651Z,3.88
2022-10-31T13:15:45.283Z,3.72
2022-10-31T13:18:29.980Z,4.00
2022-10-31T13:20:59.137Z,3.58
2022-10-31T13:26:39.382Z,3.80
2022-10-31T13:29:33.084Z,3.67
2022-10-31T13:32:05.164Z,4.43
2022-10-31T13:34:40.942Z,4.00
2022-10-31T13:37:35.272Z,4.00
2022-10-31T13:40:14.292Z,3.80
2022-10-31T13:43:06.791Z,4.28
2022-10-31T13:45:33.689Z,3.80
2022-10-31T13:48:01.865Z,4.53
2022-10-31T13:50:32.004Z,3.85
2022-10-31T13:53:11.747Z,4.03
2022-10-31T13:55:42.753Z,4.22
2022-10-31T13:58:28.665Z,4.25
2022-10-31T14:01:18.609Z,4.60
2022-10-31T14:04:12.237Z,4.50
2022-10-31T14:06:40.004Z,4.28
2022-10-31T14:09:16.578Z,4.38
2022-10-31T14:11:47.715Z,4.13
2022-10-31T14:14:15.392Z,4.00
2022-10-31T14:16:45.504Z,4.80
2022-10-31T14:19:21.585Z,4.47
2022-10-31T14:21:49.950Z,4.88
2022-10-31T14:24:37.741Z,4.07
2022-10-31T14:27:29.449Z,4.43
2022-10-31T14:29:56.249Z,4.50
2022-10-31T14:32:25.210Z,4.40
2022-10-31T14:34:53.774Z,4.45
2022-10-31T14:37:39.609Z,4.65
2022-10-31T14:40:28.737Z,4.70
2022-10-31T14:43:14.404Z,4.43
2022-10-31T14:45:50.059Z,4.78
2022-10-31T14:48:19.859Z,5.10
2022-10-31T14:50:49.672Z,4.63
2022-10-31T14:53:41.057Z,4.85
2022-10-31T14:56:11.285Z,5.00
2022-10-31T14:58:46.681Z,4.97
2022-10-31T15:01:32.646Z,4.90
2022-10-31T15:04:24.085Z,5.30
2022-10-31T15:07:01.966Z,4.88
2022-10-31T15:09:35.212Z,4.88
2022-10-31T15:12:22.213Z,4.57
2022-10-31T15:14:48.908Z,5.30
2022-10-31T15:17:16.804Z,5.18
2022-10-31T15:19:44.538Z,5.15
2022-10-31T15:22:20.549Z,5.13
2022-10-31T15:24:49.084Z,5.68
2022-10-31T15:27:18.283Z,5.07
2022-10-31T15:29:53.522Z,4.85
2022-10-31T15:32:23.886Z,5.15
2022-10-31T15:34:52.613Z,5.35
2022-10-31T15:37:21.663Z,4.90
2022-10-31T15:39:49.791Z,5.53
2022-10-31T15:42:19.531Z,5.25
2022-10-31T15:44:52.313Z,4.68
2022-10-31T15:47:25.280Z,5.05
2022-10-31T15:49:58.160Z,5.43
2022-10-31T15:52:51.975Z,4.93
2022-10-31T15:55:24.658Z,4.90
2022-10-31T15:57:54.867Z,5.40
2022-10-31T16:00:33.104Z,4.85
2022-10-31T16:03:13.469Z,4.85
2022-10-31T16:05:45.514Z,5.10
2022-10-31T16:08:46.682Z,5.28
2022-10-31T16:11:16.045Z,5.07
2022-10-31T16:13:55.746Z,5.35
2022-10-31T16:16:38.410Z,5.57
2022-10-31T16:19:13.096Z,5.90
2022-10-31T16:21:40.292Z,6.00
2022-10-31T16:24:27.425Z,5.53
2022-10-31T16:26:58.500Z,5.20
2022-10-31T16:29:36.337Z,5.85
2022-10-31T16:32:03.170Z,5.85
2022-10-31T16:34:29.947Z,6.25
2022-10-31T16:36:56.728Z,5.85
2022-10-31T16:39:23.798Z,6.10
2022-10-31T16:41:55.673Z,5.90
2022-10-31T16:44:24.737Z,6.28
2022-10-31T16:47:13.405Z,5.40
2022-10-31T16:49:40.313Z,6.13
2022-10-31T16:52:07.089Z,5.70
2022-10-31T16:54:33.781Z,6.50
2022-10-31T16:57:01.867Z,6.35
2022-10-31T16:59:28.803Z,5.68
2022-10-31T17:01:56.520Z,6.22
2022-10-31T17:04:23.386Z,5.72
2022-10-31T17:06:50.120Z,8.18
2022-10-31T17:09:16.866Z,7.45
2022-10-31T17:11:50.379Z,8.45
2022-10-31T17:14:18.784Z,7.50
2022-10-31T17:16:45.584Z,7.40
2022-10-31T17:19:12.819Z,7.43
2022-10-31T17:21:40.455Z,7.13
2022-10-31T17:24:09.040Z,7.57
2022-10-31T17:26:35.735Z,8.07
2022-10-31T17:29:03.532Z,9.43
2022-10-31T17:31:32.552Z,8.52
2022-10-31T17:34:02.697Z,8.35
2022-10-31T17:36:31.466Z,8.00
2022-10-31T17:38:58.226Z,8.60
2022-10-31T17:41:24.965Z,8.50
2022-10-31T17:43:59.192Z,9.73
2022-10-31T17:46:26.192Z,10.18
2022-10-31T17:48:52.995Z,10.15
2022-10-31T17:51:19.869Z,10.32
2022-10-31T17:53:46.663Z,10.10
2022-10-31T17:56:13.586Z,8.55
2022-10-31T17:58:40.405Z,9.30
2022-10-31T18:01:10.533Z,9.77
2022-10-31T18:03:38.108Z,8.77
2022-10-31T18:06:05.994Z,9.20
2022-10-31T18:08:35.465Z,9.13
2022-10-31T18:11:10.838Z,10.25
2022-10-31T18:13:38.306Z,8.73
2022-10-31T18:16:14.318Z,11.50
2022-10-31T18:18:41.266Z,11.30
2022-10-31T18:21:08.026Z,12.07
2022-10-31T18:23:34.788Z,12.13
2022-10-31T18:26:01.774Z,12.20
2022-10-31T18:28:28.497Z,11.80
2022-10-31T18:30:57.940Z,11.55
2022-10-31T18:33:24.651Z,10.77
2022-10-31T18:35:51.402Z,11.18
2022-10-31T18:38:18.144Z,10.85
2022-10-31T18:40:44.862Z,14.20
2022-10-31T18:43:11.552Z,10.52
2022-10-31T18:45:47.168Z,13.95
2022-10-31T18:48:16.100Z,15.95
2022-10-31T18:50:43.536Z,7.75
2022-10-31T18:53:10.523Z,13.88
2022-10-31T18:55:45.355Z,11.02
2022-10-31T18:58:17.717Z,15.18
2022-10-31T19:00:46.008Z,13.85
2022-10-31T19:03:13.883Z,12.68
2022-10-31T19:05:40.721Z,12.77
2022-10-31T19:08:07.501Z,14.52
2022-10-31T19:10:38.443Z,8.48
2022-10-31T19:13:05.544Z,14.07
2022-10-31T19:15:34.773Z,9.50
2022-10-31T19:18:01.777Z,8.93
2022-10-31T19:20:28.573Z,14.65
2022-10-31T19:22:55.325Z,9.50
2022-10-31T19:25:22.092Z,8.73
2022-10-31T19:27:48.810Z,8.90
2022-10-31T19:30:15.970Z,15.55
2022-10-31T19:32:42.680Z,11.48
2022-10-31T19:35:10.833Z,13.07
2022-10-31T19:37:39.590Z,13.60
2022-10-31T19:40:08.779Z,11.27
2022-10-31T19:42:35.880Z,11.07
2022-10-31T19:45:03.595Z,13.95
2022-10-31T19:47:31.842Z,11.77
2022-10-31T19:49:58.626Z,11.40
2022-10-31T19:52:25.315Z,17.35
2022-10-31T19:54:52.112Z,10.98
2022-10-31T19:57:35.858Z,11.85
2022-10-31T20:00:06.354Z,11.90
2022-10-31T20:02:38.392Z,13.80
2022-10-31T20:05:05.545Z,14.45
2022-10-31T20:07:32.232Z,9.63
2022-10-31T20:09:58.997Z,15.25
2022-10-31T20:12:25.688Z,12.07
2022-10-31T20:14:52.375Z,14.60
2022-10-31T20:17:19.063Z,17.58
2022-10-31T20:19:45.835Z,13.30
2022-10-31T20:22:12.596Z,13.57
2022-10-31T20:24:39.346Z,14.60
2022-10-31T20:27:06.102Z,12.25
2022-10-31T20:29:32.868Z,12.60
2022-10-31T20:31:59.603Z,14.13
2022-10-31T20:34:26.383Z,11.07
2022-10-31T20:36:53.169Z,13.27
2022-10-31T20:39:19.969Z,11.20
2022-10-31T20:41:46.763Z,9.45
2022-10-31T20:44:13.578Z,11.95
2022-10-31T20:46:40.431Z,10.10
2022-10-31T20:49:07.366Z,14.38
2022-10-31T20:51:34.202Z,10.32
2022-10-31T20:54:01.176Z,12.85
2022-10-31T20:56:28.793Z,9.02
2022-10-31T20:58:56.677Z,12.48
2022-10-31T21:01:27.003Z,11.52
2022-10-31T21:03:54.222Z,10.73
2022-10-31T21:06:23.173Z,14.55
2022-10-31T21:08:50.871Z,11.15
2022-10-31T21:11:20.147Z,9.57
2022-10-31T21:13:48.427Z,11.43
2022-10-31T21:16:19.058Z,17.80
2022-10-31T21:18:47.212Z,11.57
2022-10-31T21:21:27.554Z,14.20
2022-10-31T21:24:01.961Z,13.32
2022-10-31T21:26:30.993Z,12.70
2022-10-31T21:28:59.199Z,15.65
2022-10-31T21:31:28.223Z,12.73
2022-10-31T21:33:55.424Z,11.15
2022-10-31T21:36:47.363Z,14.93
2022-10-31T21:39:14.239Z,11.20
2022-10-31T21:41:41.163Z,9.45
2022-10-31T21:44:08.127Z,13.73
2022-10-31T21:46:34.946Z,14.20
2022-10-31T21:49:03.174Z,19.02
2022-10-31T21:51:32.274Z,11.73
2022-10-31T21:54:18.349Z,16.23
2022-10-31T21:56:51.389Z,16.90
2022-10-31T21:59:18.344Z,11.90
2022-10-31T22:01:45.394Z,11.93
2022-10-31T22:04:16.167Z,11.02
2022-10-31T22:10:52.105Z,17.10
2022-10-31T22:13:19.160Z,14.70
2022-10-31T22:15:46.097Z,16.60
2022-10-31T22:18:12.820Z,14.02
2022-10-31T22:20:39.592Z,16.33
2022-10-31T22:23:07.677Z,15.63
2022-10-31T22:25:39.273Z,14.30
2022-10-31T22:28:07.914Z,13.60
2022-10-31T22:30:38.030Z,17.73
2022-10-31T22:33:05.147Z,14.10
2022-10-31T22:35:34.057Z,15.57
2022-10-31T22:38:01.272Z,11.10
2022-10-31T22:40:28.218Z,17.40
2022-10-31T22:42:57.897Z,13.10
2022-10-31T22:45:24.826Z,14.63
2022-10-31T22:47:51.580Z,13.85
2022-10-31T22:50:18.375Z,12.68
2022-10-31T22:52:45.084Z,10.20
2022-10-31T22:55:11.804Z,15.90
2022-10-31T22:57:38.565Z,12.35
2022-10-31T23:00:05.914Z,13.80
2022-10-31T23:02:32.757Z,13.10
2022-10-31T23:04:59.674Z,12.43
2022-10-31T23:07:29.469Z,10.45
2022-10-31T23:09:58.805Z,10.57
2022-10-31T23:12:44.268Z,8.90
2022-10-31T23:15:11.012Z,14.10
2022-10-31T23:17:39.010Z,14.35
2022-10-31T23:20:07.068Z,13.55
2022-10-31T23:22:33.753Z,12.52
2022-10-31T23:25:00.530Z,13.52
2022-10-31T23:27:27.239Z,13.80
2022-10-31T23:29:59.310Z,10.70
2022-10-31T23:32:31.543Z,13.55
2022-10-31T23:35:09.446Z,13.38
2022-10-31T23:37:38.374Z,13.13
2022-10-31T23:40:08.573Z,11.00
2022-10-31T23:42:35.544Z,13.23
2022-10-31T23:45:02.264Z,10.45
2022-10-31T23:47:28.972Z,11.38
2022-10-31T23:49:55.695Z,10.30
2022-10-31T23:52:22.413Z,8.73
2022-10-31T23:54:49.122Z,8.73
2022-10-31T23:57:16.783Z,9.43
2022-10-31T23:59:44.047Z,11.25
